Time;durP1;ratioP1;P1;durP2;ratioP2;P2;SDS_P1;SDS_P2;PMS_P1;PMS_P2;Temp;Humidity;BMP_temperature;BMP_pressure;BME280_temperature;BME280_humidity;BME280_pressure;Samples;Min_cycle;Max_cycle;Signal;HPM_P1;HPM_P2
2021/08/05 00:02:08;;;;;;;14.52;5.55;;;;;;;19.81;57.18;93389.19;5090096;28;20020;-58
2021/08/05 00:04:33;;;;;;;8.45;5.60;;;;;;;19.94;57.66;93408.16;5093751;28;20024;-58
2021/08/05 00:06:59;;;;;;;17.80;8.10;;;;;;;19.96;56.63;93411.81;5111141;28;20488;-58
2021/08/05 00:09:24;;;;;;;11.50;7.15;;;;;;;20.00;57.13;93411.31;5110562;28;20080;-57
2021/08/05 00:11:50;;;;;;;14.10;8.23;;;;;;;19.88;57.01;93405.00;5110908;28;20035;-57
2021/08/05 00:14:15;;;;;;;25.80;8.27;;;;;;;19.93;56.62;93398.28;5110788;28;20024;-57
2021/08/05 00:16:40;;;;;;;15.88;7.35;;;;;;;19.90;56.86;93400.25;5110630;28;20055;-58
2021/08/05 00:19:06;;;;;;;11.25;7.13;;;;;;;19.92;56.81;93396.84;5092419;28;20020;-58
2021/08/05 00:21:31;;;;;;;11.93;7.18;;;;;;;19.94;57.02;93405.38;5110855;28;20031;-58
2021/08/05 00:23:57;;;;;;;13.98;7.15;;;;;;;19.92;56.75;93397.56;5110616;28;20023;-60
2021/08/05 00:26:22;;;;;;;13.07;6.93;;;;;;;19.84;57.31;93399.19;5109141;28;20073;-62
2021/08/05 00:28:48;;;;;;;15.90;6.60;;;;;;;19.87;57.10;93395.88;5107646;28;20102;-62
2021/08/05 00:31:13;;;;;;;19.73;7.60;;;;;;;19.89;57.09;93398.06;5109792;28;20019;-62
2021/08/05 00:33:39;;;;;;;21.08;7.65;;;;;;;19.89;57.30;93395.97;5110184;28;20024;-62
2021/08/05 00:36:04;;;;;;;13.23;8.48;;;;;;;19.91;56.50;93396.09;5110524;28;20408;-62
2021/08/05 00:38:30;;;;;;;15.77;7.55;;;;;;;19.93;56.41;93384.28;5110522;28;20035;-62
2021/08/05 00:40:55;;;;;;;16.55;7.65;;;;;;;19.88;56.50;93397.31;5110683;28;20023;-59
2021/08/05 00:43:22;;;;;;;21.70;6.80;;;;;;;19.94;55.84;93399.75;5096975;28;20016;-59
2021/08/05 00:45:47;;;;;;;11.02;6.30;;;;;;;19.98;55.73;93397.94;5090428;28;20124;-59
2021/08/05 00:48:13;;;;;;;17.13;6.57;;;;;;;20.00;56.17;93400.09;5090329;28;20509;-59
2021/08/05 00:50:38;;;;;;;21.20;7.32;;;;;;;19.89;55.24;93373.56;5090080;28;20389;-59
2021/08/05 00:53:04;;;;;;;11.95;7.18;;;;;;;20.09;56.07;93393.63;5089995;28;20432;-58
2021/08/05 00:55:30;;;;;;;16.95;7.35;;;;;;;20.04;55.19;93389.88;5090004;28;20696;-59
2021/08/05 00:57:57;;;;;;;16.38;7.38;;;;;;;20.07;55.61;93399.13;5090305;28;20479;-59
2021/08/05 01:00:24;;;;;;;15.38;7.43;;;;;;;20.11;55.78;93402.16;5090143;28;20039;-59
2021/08/05 01:02:54;;;;;;;11.93;6.68;;;;;;;19.90;54.86;93368.69;5108979;28;20526;-54
2021/08/05 01:05:21;;;;;;;14.43;7.00;;;;;;;20.16;55.36;93398.97;5092424;28;20030;-56
2021/08/05 01:08:01;;;;;;;11.38;5.93;;;;;;;20.20;55.01;93399.25;5092134;28;20020;-55
2021/08/05 01:10:54;;;;;;;10.70;5.88;;;;;;;20.18;54.75;93399.06;5092490;28;20038;-54
2021/08/05 01:13:49;;;;;;;16.90;7.03;;;;;;;20.27;55.34;93398.22;5089603;28;20108;-54
2021/08/05 01:16:17;;;;;;;18.88;5.28;;;;;;;20.32;54.68;93402.00;5092039;28;20019;-58
2021/08/05 01:18:43;;;;;;;24.25;6.07;;;;;;;20.38;54.99;93405.88;5109875;28;20023;-58
2021/08/05 01:21:47;;;;;;;11.10;5.47;;;;;;;20.37;53.89;93398.81;5092311;28;20080;-58
2021/08/05 01:24:14;;;;;;;15.73;5.65;;;;;;;20.42;53.62;93393.44;5093916;28;20057;-63
2021/08/05 01:26:48;;;;;;;14.68;5.75;;;;;;;20.43;53.16;93390.00;5095724;28;20030;-58
2021/08/05 01:29:15;;;;;;;10.15;4.60;;;;;;;20.39;54.17;93390.53;5114073;28;20020;-58
2021/08/05 01:31:44;;;;;;;8.75;5.18;;;;;;;20.45;54.27;93390.13;5094362;28;20023;-57
2021/08/05 01:34:10;;;;;;;;;;;;;;;20.50;54.37;93385.47;5114421;28;20094;-57
2021/08/05 01:36:35;;;;;;;;;;;;;;;20.48;55.13;93385.38;5096115;28;20382;-58
2021/08/05 01:39:01;;;;;;;;;;;;;;;20.52;54.47;93380.72;5114492;28;19918;-59
2021/08/05 01:41:28;;;;;;;;;;;;;;;20.55;54.51;93378.75;5096262;28;19915;-56
2021/08/05 01:43:53;;;;;;;;;;;;;;;20.45;53.81;93372.56;5078225;28;19915;-56
2021/08/05 01:46:18;;;;;;;;;;;;;;;20.48;54.33;93374.88;5093726;28;20309;-59
2021/08/05 01:48:44;;;;;;;;;;;;;;;20.54;53.86;93374.47;5075780;28;20014;-59
2021/08/05 01:51:09;;;;;;;;;;;;;;;20.54;54.52;93377.28;5075557;28;19998;-58
2021/08/05 01:53:34;;;;;;;;;;;;;;;20.56;54.25;93378.13;5075779;28;19908;-58
2021/08/05 01:56:00;;;;;;;;;;;;;;;20.62;54.60;93377.75;5093348;28;19916;-59
2021/08/05 01:58:25;;;;;;;;;;;;;;;20.62;53.93;93372.16;5108024;28;19919;-58
2021/08/05 02:00:50;;;;;;;;;;;;;;;20.63;54.16;93377.13;5112757;28;19967;-59
2021/08/05 02:03:16;;;;;;;;;;;;;;;20.59;53.60;93374.09;5114026;28;19908;-59
2021/08/05 02:05:49;;;;;;;;;;;;;;;20.53;53.54;93373.03;5114004;28;20312;-59
2021/08/05 02:08:15;;;;;;;;;;;;;;;20.63;54.28;93368.72;5113508;28;19907;-58
2021/08/05 02:10:42;;;;;;;;;;;;;;;20.60;54.46;93375.56;5095431;28;19972;-59
2021/08/05 02:13:20;;;;;;;;;;;;;;;20.61;54.71;93376.28;5113581;28;20624;-59
2021/08/05 02:15:46;;;;;;;;;;;;;;;20.57;54.54;93376.81;5095663;28;20007;-58
2021/08/05 02:18:12;;;;;;;;;;;;;;;20.56;54.81;93380.94;5095269;28;20388;-59
2021/08/05 02:20:37;;;;;;;;;;;;;;;20.56;54.07;93380.94;5113672;28;19911;-59
2021/08/05 02:23:02;;;;;;;;;;;;;;;20.54;55.10;93380.81;5095172;28;20027;-59
2021/08/05 02:25:27;;;;;;;;;;;;;;;20.47;54.75;93376.22;5095514;28;19911;-58
2021/08/05 02:27:53;;;;;;;;;;;;;;;20.46;55.11;93379.66;5111556;28;19914;-58
2021/08/05 02:30:18;;;;;;;;;;;;;;;20.38;55.59;93377.84;5113572;28;20006;-58
2021/08/05 02:32:43;;;;;;;;;;;;;;;20.47;56.10;93372.69;5113254;28;20338;-58
2021/08/05 02:35:09;;;;;;;;;;;;;;;20.50;55.49;93386.22;5095203;28;19914;-58
2021/08/05 02:37:35;;;;;;;;;;;;;;;20.37;55.05;93390.41;5095181;28;19907;-58
2021/08/05 02:40:01;;;;;;;;;;;;;;;20.36;55.47;93391.75;5113293;28;20023;-57
2021/08/05 02:42:26;;;;;;;;;;;;;;;20.39;55.89;93387.72;5106889;28;19908;-57
2021/08/05 02:44:51;;;;;;;;;;;;;;;20.42;54.50;93388.56;5074831;28;19986;-58
2021/08/05 02:47:16;;;;;;;;;;;;;;;20.47;55.62;93378.28;5074479;28;19911;-57
2021/08/05 02:49:42;;;;;;;;;;;;;;;20.47;55.96;93395.13;5074748;28;19938;-57
2021/08/05 02:52:07;;;;;;;;;;;;;;;20.39;55.71;93387.00;5074405;28;19988;-58
2021/08/05 02:54:32;;;;;;;;;;;;;;;20.37;56.29;93389.69;5087580;28;19982;-57
2021/08/05 02:56:57;;;;;;;;;;;;;;;20.43;55.88;93387.22;5087733;28;19927;-57
2021/08/05 02:59:24;;;;;;;;;;;;;;;20.45;55.87;93381.72;5071773;28;20495;-58
2021/08/05 03:01:49;;;;;;;;;;;;;;;20.41;56.04;93375.88;5087440;28;19908;-58
2021/08/05 03:04:15;;;;;;;;;;;;;;;20.39;56.46;93368.09;5086762;28;19908;-58
2021/08/05 03:06:40;;;;;;;;;;;;;;;20.41;56.14;93370.28;5071835;28;19912;-58
2021/08/05 03:09:06;;;;;;;;;;;;;;;20.42;56.17;93366.13;5087512;28;19958;-58
2021/08/05 03:11:31;;;;;;;;;;;;;;;20.42;56.24;93368.94;5071978;28;19991;-58
2021/08/05 03:13:56;;;;;;;;;;;;;;;20.33;56.56;93364.22;5071725;28;19912;-58
2021/08/05 03:16:22;;;;;;;;;;;;;;;20.33;56.34;93369.81;5071695;28;19908;-58
2021/08/05 03:18:47;;;;;;;;;;;;;;;20.31;56.36;93361.31;5041076;28;19916;-58
2021/08/05 03:21:12;;;;;;;;;;;;;;;20.26;56.89;93368.75;5031629;28;19916;-58
2021/08/05 03:23:38;;;;;;;;;;;;;;;20.22;56.78;93364.97;5031849;28;19913;-58
2021/08/05 03:26:03;;;;;;;;;;;;;;;20.21;57.10;93371.91;5031447;28;19944;-59
2021/08/05 03:28:28;;;;;;;;;;;;;;;20.14;57.59;93361.69;5059956;28;19908;-57
2021/08/05 03:30:54;;;;;;;;;;;;;;;20.18;57.12;93365.44;5071640;28;20274;-58
2021/08/05 03:33:19;;;;;;;;;;;;;;;20.16;57.41;93362.53;5071719;28;19908;-58
2021/08/05 03:35:44;;;;;;;;;;;;;;;20.28;57.63;93356.91;5071590;28;19919;-55
2021/08/05 03:38:09;;;;;;;;;;;;;;;20.20;57.31;93362.03;5071266;28;19969;-56
2021/08/05 03:40:35;;;;;;;;;;;;;;;20.22;57.71;93354.50;5071478;28;19913;-56
2021/08/05 03:43:00;;;;;;;;;;;;;;;20.27;57.62;93356.19;5060525;28;19908;-54
2021/08/05 03:45:25;;;;;;;;;;;;;;;20.30;57.98;93359.81;5050752;28;19916;-53
2021/08/05 03:47:50;;;;;;;;;;;;;;;20.29;57.82;93352.78;5051234;28;19909;-56
2021/08/05 03:50:16;;;;;;;;;;;;;;;20.34;58.52;93340.41;5060118;28;19908;-55
2021/08/05 03:52:41;;;;;;;;;;;;;;;20.39;57.87;93348.47;5069962;28;20426;-53
2021/08/05 03:55:12;;;;;;;;;;;;;;;20.39;58.40;93344.91;5072466;28;19908;-54
2021/08/05 03:57:38;;;;;;;;;;;;;;;20.44;58.91;93343.06;5112005;28;19946;-54
2021/08/05 04:00:03;;;;;;;;;;;;;;;20.52;58.35;93344.25;5111406;28;20369;-53
2021/08/05 04:02:28;;;;;;;;;;;;;;;20.54;59.11;93347.16;5111874;28;19907;-51
2021/08/05 04:04:54;;;;;;;;;;;;;;;20.49;59.10;93348.28;5111244;28;19907;-52
2021/08/05 04:07:19;;;;;;;;;;;;;;;20.54;59.33;93343.63;5111483;28;19908;-49
2021/08/05 04:09:44;;;;;;;;;;;;;;;20.53;59.47;93342.88;5093009;28;19908;-50
2021/08/05 04:12:10;;;;;;;;;;;;;;;20.60;59.74;93339.09;5111152;28;19915;-51
2021/08/05 04:14:35;;;;;;;;;;;;;;;20.66;59.87;93335.91;5104935;28;20351;-50
2021/08/05 04:17:00;;;;;;;;;;;;;;;20.69;59.64;93332.56;5090760;28;19915;-50
2021/08/05 04:19:26;;;;;;;;;;;;;;;20.77;58.74;93333.00;5091188;28;20053;-50
2021/08/05 04:21:53;;;;;;;;;;;;;;;20.82;59.65;93331.88;5100501;28;19938;-50
2021/08/05 04:24:18;;;;;;;;;;;;;;;20.86;59.03;93323.69;5111301;28;20327;-52
2021/08/05 04:26:43;;;;;;;;;;;;;;;20.91;59.24;93319.03;5110896;28;19908;-50
2021/08/05 04:29:08;;;;;;;;;;;;;;;20.85;58.99;93316.63;5111154;28;19907;-54
2021/08/05 04:31:34;;;;;;;;;;;;;;;21.01;59.40;93316.75;5111440;28;19907;-56
2021/08/05 04:33:59;;;;;;;;;;;;;;;21.06;59.91;93313.56;5111264;28;20357;-54
2021/08/05 04:36:24;;;;;;;;;;;;;;;21.10;59.12;93310.97;5111290;28;19920;-57
2021/08/05 04:38:49;;;;;;;;;;;;;;;21.20;59.69;93313.59;5109988;28;19916;-56
2021/08/05 04:41:15;;;;;;;;;;;;;;;21.28;59.48;93311.22;5111036;28;19908;-57
2021/08/05 04:43:40;;;;;;;;;;;;;;;21.34;58.69;93310.78;5092104;28;20279;-56
2021/08/05 04:46:06;;;;;;;;;;;;;;;21.41;58.73;93304.13;5079393;28;20485;-56
2021/08/05 04:48:31;;;;;;;;;;;;;;;21.50;59.28;93306.00;5108906;28;19916;-57
2021/08/05 04:50:56;;;;;;;;;;;;;;;21.57;58.65;93313.41;5108749;28;20363;-56
2021/08/05 04:53:22;;;;;;;;;;;;;;;21.65;58.45;93314.53;5108877;28;19999;-58
2021/08/05 04:55:47;;;;;;;;;;;;;;;21.71;58.63;93309.22;5108776;28;20411;-58
2021/08/05 04:58:12;;;;;;;;;;;;;;;21.77;58.12;93311.59;5112510;28;19968;-57
2021/08/05 05:00:38;;;;;;;;;;;;;;;21.81;57.93;93306.91;5112720;28;19923;-57
2021/08/05 05:03:04;;;;;;;;;;;;;;;21.85;58.82;93303.63;5112685;28;19916;-57
2021/08/05 05:05:31;;;;;;;;;;;;;;;21.96;57.67;93307.66;5112523;28;19937;-57
2021/08/05 05:07:58;;;;;;;;;;;;;;;21.96;58.53;93307.66;5112411;28;19911;-56
2021/08/05 05:10:24;;;;;;;;;;;;;;;22.05;58.50;93313.03;5112644;28;19915;-56
2021/08/05 05:12:49;;;;;;;;;;;;;;;22.13;58.10;93315.53;5112636;28;20249;-57
2021/08/05 05:15:15;;;;;;;;;;;;;;;22.17;58.15;93310.09;5112458;28;19907;-56
2021/08/05 05:17:41;;;;;;;;;;;;;;;22.21;58.53;93311.03;5112623;28;19912;-56
2021/08/05 05:20:07;;;;;;;;;;;;;;;22.23;57.99;93311.13;5111858;28;19922;-57
2021/08/05 05:22:32;;;;;;;;;;;;;;;22.26;58.51;93301.41;5112036;28;19912;-58
2021/08/05 05:24:58;;;;;;;;;;;;;;;22.28;57.81;93298.72;5112303;28;19994;-54
2021/08/05 05:27:23;;;;;;;;;;;;;;;22.39;57.94;93302.75;5107554;28;20364;-56
2021/08/05 05:29:49;;;;;;;;;;;;;;;22.47;58.05;93312.31;5112169;28;19964;-58
2021/08/05 05:32:14;;;;;;;;;;;;;;;22.56;57.64;93299.34;5111953;28;19908;-58
2021/08/05 05:34:39;;;;;;;;;;;;;;;22.64;57.89;93302.56;5112133;28;19923;-58
2021/08/05 05:37:04;;;;;;;;;;;;;;;22.75;57.83;93307.31;5112093;28;20435;-58
2021/08/05 05:39:30;;;;;;;;;;;;;;;22.83;57.79;93306.94;5110148;28;19919;-58
2021/08/05 05:41:55;;;;;;;;;;;;;;;22.89;56.33;93304.44;5108150;28;20418;-58
2021/08/05 05:44:20;;;;;;;;;;;;;;;22.98;56.45;93292.16;5071315;28;19977;-57
2021/08/05 05:46:46;;;;;;;;;;;;;;;23.02;56.04;93287.44;5071054;28;19918;-60
2021/08/05 05:49:11;;;;;;;;;;;;;;;23.10;56.05;93296.28;5071137;28;19915;-58
2021/08/05 05:51:36;;;;;;;;;;;;;;;23.16;56.22;93293.00;5071127;28;20022;-52
2021/08/05 05:54:01;;;;;;;;;;;;;;;23.18;56.52;93288.19;5070815;28;20619;-50
2021/08/05 05:56:27;;;;;;;;;;;;;;;23.25;56.39;93289.91;5070498;28;19924;-53
2021/08/05 05:58:52;;;;;;;;;;;;;;;23.32;56.15;93288.78;5070634;28;20298;-51
2021/08/05 06:01:17;;;;;;;;;;;;;;;23.37;56.84;93292.56;5070921;28;19912;-59
2021/08/05 06:03:42;;;;;;;;;;;;;;;23.44;57.29;93287.91;5070731;28;20390;-57
2021/08/05 06:06:08;;;;;;;;;;;;;;;23.62;56.90;93291.53;5071032;28;19923;-58
2021/08/05 06:08:33;;;;;;;;;;;;;;;23.72;56.45;93287.03;5070154;28;20352;-57
2021/08/05 06:10:58;;;;;;;;;;;;;;;23.78;55.12;93284.47;5070850;28;20015;-51
2021/08/05 06:13:24;;;;;;;;;;;;;;;23.86;56.44;93270.75;5070847;28;19913;-57
2021/08/05 06:15:49;;;;;;;;;;;;;;;23.91;55.71;93280.81;5070859;28;20284;-58
2021/08/05 06:18:14;;;;;;;;;;;;;;;23.95;56.28;93275.34;5070405;28;19951;-57
2021/08/05 06:20:40;;;;;;;;;;;;;;;24.05;54.93;93272.25;5070403;28;19919;-57
2021/08/05 06:23:08;;;;;;;;;;;;;;;24.16;55.78;93271.28;5070345;28;20384;-59
2021/08/05 06:25:34;;;;;;;;;;;;;;;24.18;56.11;93271.38;5070255;28;19912;-59
2021/08/05 06:27:59;;;;;;;;;;;;;;;24.22;54.89;93276.44;5095766;28;19912;-54
2021/08/05 06:30:24;;;;;;;;;;;;;;;24.26;55.03;93266.06;5111099;28;19999;-56
2021/08/05 06:32:51;;;;;;;;;;;;;;;24.37;52.81;93264.34;5110969;28;19980;-59
2021/08/05 06:35:17;;;;;;;;;;;;;;;24.43;53.81;93259.69;5111128;28;19912;-57
2021/08/05 06:37:42;;;;;;;;;;;;;;;24.52;54.56;93266.38;5110608;28;19911;-59
2021/08/05 06:40:08;;;;;;;;;;;;;;;24.62;54.56;93259.03;5090025;28;19924;-55
2021/08/05 06:42:34;;;;;;;;;;;;;;;24.71;51.68;93260.09;5083370;28;19908;-54
2021/08/05 06:44:59;;;;;;;;;;;;;;;24.77;51.19;93257.53;5071587;28;20379;-57
2021/08/05 06:47:24;;;;;;;;;;;;;;;24.79;51.74;93254.78;5091593;28;19961;-53
2021/08/05 06:49:50;;;;;;;;;;;;;;;24.91;52.56;93255.22;5092888;28;19919;-51
2021/08/05 06:52:15;;;;;;;;;;;;;;;25.02;50.60;93245.03;5092487;28;19908;-53
2021/08/05 06:54:40;;;;;;;;;;;;;;;25.08;50.32;93236.78;5092411;28;19961;-54
2021/08/05 06:57:06;;;;;;;;;;;;;;;25.22;50.35;93231.66;5092188;28;19972;-57
2021/08/05 06:59:31;;;;;;;;;;;;;;;25.35;48.98;93236.38;5092602;28;20304;-53
2021/08/05 07:01:56;;;;;;;;;;;;;;;25.37;49.12;93230.78;5091549;28;20449;-60
2021/08/05 07:04:21;;;;;;;;;;;;;;;25.46;48.49;93227.63;5092280;28;19908;-58
2021/08/05 07:06:47;;;;;;;;;;;;;;;25.61;49.91;93223.19;5092433;28;19908;-57
2021/08/05 07:09:12;;;;;;;;;;;;;;;25.79;49.58;93228.75;5092349;28;20002;-58
2021/08/05 07:11:37;;;;;;;;;;;;;;;25.95;48.27;93218.69;5092029;28;20396;-57
2021/08/05 07:14:03;;;;;;;;;;;;;;;26.09;48.28;93221.31;5091973;28;19915;-57
2021/08/05 07:16:28;;;;;;;;;;;;;;;26.26;46.91;93221.16;5092279;28;19998;-57
2021/08/05 07:18:53;;;;;;;;;;;;;;;26.45;47.65;93216.81;5091642;28;19962;-58
2021/08/05 07:21:18;;;;;;;;;;;;;;;26.69;47.65;93222.50;5091195;28;19962;-57
2021/08/05 07:23:44;;;;;;;;;;;;;;;26.90;45.94;93213.25;5092129;28;19908;-58
2021/08/05 07:26:10;;;;;;;;;;;;;;;27.04;45.32;93216.50;5092123;28;20377;-58
2021/08/05 07:28:35;;;;;;;;;;;;;;;27.14;43.93;93213.94;5107883;28;19968;-57
2021/08/05 07:31:01;;;;;;;;;;;;;;;27.15;43.05;93215.41;5110535;28;19912;-57
2021/08/05 07:33:26;;;;;;;;;;;;;;;27.21;43.47;93220.50;5097291;28;19915;-57
2021/08/05 07:35:51;;;;;;;;;;;;;;;27.33;43.37;93218.03;5109606;28;19911;-57
2021/08/05 07:38:16;;;;;;;;;;;;;;;27.68;43.34;93206.25;5111898;28;20381;-58
2021/08/05 07:40:42;;;;;;;;;;;;;;;28.01;43.30;93211.41;5111816;28;19919;-58
2021/08/05 07:43:07;;;;;;;;;;;;;;;28.33;41.04;93206.53;5094172;28;19919;-58
2021/08/05 07:45:33;;;;;;;;;;;;;;;28.63;41.11;93214.38;5079492;28;19915;-58
2021/08/05 07:47:58;;;;;;;;;;;;;;;29.25;39.43;93210.09;5071086;28;19956;-58
2021/08/05 07:50:24;;;;;;;;;;;;;;;29.56;38.87;93200.03;5071347;28;19959;-57
2021/08/05 07:52:49;;;;;;;;;;;;;;;29.83;37.40;93208.41;5071360;28;20038;-55
2021/08/05 07:55:14;;;;;;;;;;;;;;;30.13;36.80;93221.75;5070862;28;19956;-58
2021/08/05 07:57:40;;;;;;;;;;;;;;;30.76;37.00;93212.13;5071302;28;19904;-59
2021/08/05 08:00:05;;;;;;;;;;;;;;;31.39;35.37;93209.47;5071199;28;19919;-58
2021/08/05 08:02:31;;;;;;;;;;;;;;;31.39;34.61;93212.34;5071181;28;20289;-59
2021/08/05 08:04:56;;;;;;;;;;;;;;;31.51;34.93;93211.06;5070923;28;19931;-57
2021/08/05 08:07:21;;;;;;;;;;;;;;;31.51;35.06;93208.94;5071251;28;19915;-58
2021/08/05 08:09:46;;;;;;;;;;;;;;;31.99;35.31;93205.91;5070864;28;20278;-58
2021/08/05 08:12:12;;;;;;;;;;;;;;;32.38;34.61;93195.59;5071218;28;19915;-58
2021/08/05 08:14:37;;;;;;;;;;;;;;;32.85;32.28;93197.41;5071106;28;19912;-58
2021/08/05 08:17:02;;;;;;;;;;;;;;;32.99;32.10;93191.78;5070354;28;19944;-57
2021/08/05 08:19:29;;;;;;;;;;;;;;;32.89;32.30;93186.00;5069799;28;19921;-58
2021/08/05 08:21:55;;;;;;;;;;;;;;;33.23;32.25;93182.63;5083351;28;19958;-59
2021/08/05 08:24:22;;;;;;;;;;;;;;;33.68;30.99;93181.41;5090851;28;19951;-59
2021/08/05 08:26:48;;;;;;;;;;;;;;;34.43;30.37;93176.59;5091575;28;19935;-59
2021/08/05 08:29:13;;;;;;;;;;;;;;;34.85;30.24;93176.56;5111140;28;19962;-58
2021/08/05 08:31:38;;;;;;;;;;;;;;;34.98;29.48;93180.13;5098951;28;20332;-58
2021/08/05 08:34:03;;;;;;;;;;;;;;;35.26;29.41;93185.16;5089083;28;20044;-59
2021/08/05 08:36:29;;;;;;;;;;;;;;;34.92;29.68;93186.63;5089476;28;19908;-58
2021/08/05 08:38:54;;;;;;;;;;;;;;;34.43;31.28;93188.03;5089179;28;20357;-59
2021/08/05 08:41:20;;;;;;;;;;;;;;;34.75;29.79;93185.19;5089153;28;19914;-55
2021/08/05 08:43:45;;;;;;;;;;;;;;;34.54;30.48;93183.78;5072168;28;19908;-58
2021/08/05 08:46:10;;;;;;;;;;;;;;;34.60;30.19;93183.06;5069865;28;19912;-58
2021/08/05 08:48:36;;;;;;;;;;;;;;;34.85;29.71;93182.31;5070776;28;20308;-59
2021/08/05 08:51:01;;;;;;;;;;;;;;;34.49;30.36;93178.72;5052698;28;19909;-58
2021/08/05 08:53:29;;;;;;;;;;;;;;;34.70;29.97;93183.75;5070746;28;19940;-58
2021/08/05 08:55:55;;;;;;;;;;;;;;;34.44;29.21;93177.31;5070340;28;19923;-58
2021/08/05 08:58:21;;;;;;;;;;;;;;;34.60;29.61;93177.31;5052800;28;19989;-58
2021/08/05 09:00:46;;;;;;;;;;;;;;;34.76;27.85;93175.16;5058851;28;19992;-58
2021/08/05 09:03:11;;;;;;;;;;;;;;;35.09;27.90;93175.16;5082979;28;20377;-58
2021/08/05 09:05:37;;;;;;;;;;;;;;;34.99;27.62;93187.31;5090693;28;19908;-57
2021/08/05 09:08:02;;;;;;;;;;;;;;;34.80;27.24;93177.31;5072578;28;19911;-58
2021/08/05 09:10:28;;;;;;;;;;;;;;;35.43;26.06;93180.78;5090483;28;19919;-59
2021/08/05 09:12:56;;;;;;;;;;;;;;;35.51;26.08;93172.88;5090798;28;19947;-58
2021/08/05 09:15:31;;;;;;;;;;;;;;;35.92;26.02;93164.78;5090746;28;19908;-59
2021/08/05 09:17:57;;;;;;;;;;;;;;;36.30;23.28;93155.94;5090393;28;19914;-58
2021/08/05 09:20:22;;;;;;;;;;;;;;;36.59;22.82;93147.84;5087395;28;20042;-59
2021/08/05 09:22:47;;;;;;;;;;;;;;;36.17;23.99;93145.28;5071229;28;19924;-59
2021/08/05 09:25:29;;;;;;;;;;;;;;;36.65;23.99;93150.66;5066546;28;19994;-58
2021/08/05 09:27:55;;;;;;;;;;;;;;;37.16;23.38;93148.03;5081241;28;19908;-58
2021/08/05 09:30:28;;;;;;;;;;;;;;;37.59;23.29;93139.66;5088267;28;20005;-59
2021/08/05 09:32:53;;;;;;;;;;;;;;;37.99;22.19;93129.78;5087654;28;20304;-58
2021/08/05 09:35:19;;;;;;;;;;;;;;;38.03;22.63;93130.44;5087728;28;19908;-58
2021/08/05 09:37:44;;;;;;;;;;;;;;;37.77;22.56;93125.72;5069952;28;19912;-59
2021/08/05 09:40:09;;;;;;;;;;;;;;;38.40;23.12;93116.22;5085941;28;20010;-60
2021/08/05 09:42:35;;;;;;;;;;;;;;;38.52;21.39;93110.97;5080547;28;20313;-60
2021/08/05 09:45:00;;;;;;;;;;;;;;;39.19;22.11;93115.59;5071173;28;19912;-59
2021/08/05 09:47:25;;;;;;;;;;;;;;;39.32;20.65;93119.66;5076388;28;19995;-59
2021/08/05 09:49:56;;;;;;;;;;;;;;;39.06;20.79;93111.47;5091639;28;19912;-59
2021/08/05 09:52:29;;;;;;;;;;;;;;;39.13;21.18;93107.75;5091345;28;19999;-59
2021/08/05 09:54:54;;;;;;;;;;;;;;;39.18;19.61;93102.63;5093970;28;19907;-59
2021/08/05 09:57:27;;;;;;;;;;;;;;;39.28;19.34;93099.53;5104874;28;19923;-59
2021/08/05 09:59:53;;;;;;;;;;;;;;;39.45;19.93;93100.63;5072988;28;19916;-60
2021/08/05 10:02:18;;;;;;;;;;;;;;;39.78;20.46;93101.41;5099528;28;20292;-60
2021/08/05 10:04:45;;;;;;;;;;;;;;;39.83;18.79;93099.16;5093098;28;19908;-59
2021/08/05 10:07:11;;;;;;;;;;;;;;;39.97;18.26;93098.81;5111306;28;19908;-59
2021/08/05 10:09:38;;;;;;;;;;;;;;;39.48;18.12;93087.56;5107122;28;19919;-59
2021/08/05 10:12:11;;;;;;;;;;;;;;;38.60;19.30;93070.41;5089354;28;19916;-60
2021/08/05 10:14:36;;;;;;;;;;;;;;;39.30;19.73;93064.81;5079345;28;19999;-59
2021/08/05 10:17:03;;;;;;;;;;;;;;;40.08;19.10;93071.84;5081720;28;19968;-60
2021/08/05 10:19:28;;;;;;;;;;;;;;;40.15;18.04;93063.03;5061063;28;20413;-59
2021/08/05 10:21:54;;;;;;;;;;;;;;;40.41;17.46;93054.44;5061847;28;19908;-60
2021/08/05 10:24:19;;;;;;;;;;;;;;;40.65;17.96;93058.91;5063654;28;19920;-59
2021/08/05 10:26:44;;;;;;;;;;;;;;;40.79;17.56;93055.63;5062030;28;19913;-60
2021/08/05 10:29:10;;;;;;;;;;;;;;;40.80;16.50;93043.28;5089765;28;20447;-59
2021/08/05 10:31:39;;;;;;;;;;;;;;;41.39;16.35;93035.94;5072255;28;20419;-59
2021/08/05 10:34:04;;;;;;;;;;;;;;;41.54;17.12;93028.94;5090536;28;19916;-59
2021/08/05 10:36:29;;;;;;;;;;;;;;;41.91;17.11;93036.59;5090605;28;19935;-58
2021/08/05 10:38:54;;;;;;;;;;;;;;;41.85;16.09;93025.16;5090523;28;19962;-58
2021/08/05 10:41:20;;;;;;;;;;;;;;;42.07;17.10;93025.19;5070225;28;19999;-59
2021/08/05 10:43:45;;;;;;;;;;;;;;;41.28;17.45;93017.44;5073488;28;19919;-58
2021/08/05 10:46:22;;;;;;;;;;;;;;;41.58;17.47;93010.03;5070261;28;20003;-59
2021/08/05 10:48:47;;;;;;;;;;;;;;;41.55;17.29;93015.16;5052380;28;19919;-59
2021/08/05 10:51:13;;;;;;;;;;;;;;;41.45;17.21;93009.69;5069812;28;20313;-59
2021/08/05 10:53:46;;;;;;;;;;;;;;;41.66;18.82;93006.91;5069865;28;19974;-60
2021/08/05 10:56:32;;;;;;;;;;;;;;;42.00;16.17;93008.72;5069048;28;19931;-58
2021/08/05 10:59:00;;;;;;;;;;;;;;;41.76;15.80;93000.81;5069150;28;19931;-58
2021/08/05 11:01:47;;;;;;;;;;;;;;;41.92;16.91;92991.59;5069864;28;19916;-58
2021/08/05 11:04:31;;;;;;;;;;;;;;;42.08;16.86;92988.91;5069865;28;19912;-59
2021/08/05 11:06:56;;;;;;;;;;;;;;;42.47;16.15;92979.66;5069596;28;20622;-60
2021/08/05 11:09:25;;;;;;;;;;;;;;;42.40;14.85;92974.81;5069359;28;19915;-59
2021/08/05 11:11:51;;;;;;;;;;;;;;;42.70;15.33;92962.19;5084332;28;19920;-59
2021/08/05 11:14:16;;;;;;;;;;;;;;;42.42;17.12;92958.03;5089656;28;19960;-59
2021/08/05 11:16:50;;;;;;;;;;;;;;;42.16;16.01;92953.84;5089600;28;19908;-59
2021/08/05 11:19:26;;;;;;;;;;;;;;;41.85;16.99;92944.66;5090213;28;19966;-59
2021/08/05 11:21:51;;;;;;;;;;;;;;;41.68;15.71;92943.06;5091472;28;20002;-58
2021/08/05 11:24:52;;;;;;;;;;;;;;;41.62;16.17;92949.03;5109755;28;20060;-59
2021/08/05 11:27:18;;;;;;;;;;;;;;;40.93;17.93;92935.84;5022327;28;19971;-58
2021/08/05 11:29:43;;;;;;;;;;;;;;;40.90;16.90;92935.19;5092424;28;20014;-59
2021/08/05 11:32:21;;;;;;;;;;;;;;;40.95;17.89;92922.03;5109775;28;20444;-59
2021/08/05 11:35:05;;;;;;;;;;;;;;;40.10;17.28;92930.09;5109963;28;20010;-59
2021/08/05 11:37:31;;;;;;;;;;;;;;;39.86;19.04;92941.50;5109778;28;20387;-58
2021/08/05 11:39:57;;;;;;;;;;;;;;;39.67;18.59;92926.78;5089243;28;19939;-58
2021/08/05 11:42:22;;;;;;;;;;;;;;;39.70;19.22;92924.56;5091866;28;19916;-59
2021/08/05 11:44:51;;;;;;;;;;;;;;;39.64;18.61;92913.13;5087654;28;20445;-58
2021/08/05 11:47:27;;;;;;;;;;;;;;;39.03;18.36;92916.66;5088812;28;20501;-59
2021/08/05 11:49:53;;;;;;;;;;;;;;;39.22;18.49;92906.16;5089243;28;19912;-59
2021/08/05 11:52:18;;;;;;;;;;;;;;;39.31;17.93;92907.41;5088823;28;20327;-60
2021/08/05 11:55:02;;;;;;;;;;;;;;;39.11;18.79;92902.03;5088961;28;19918;-60
2021/08/05 11:57:33;;;;;;;;;;;;;;;38.70;18.86;92901.47;5088556;28;19919;-60
2021/08/05 11:59:58;;;;;;;;;;;;;;;38.59;19.29;92886.50;5089104;28;20391;-60
2021/08/05 12:02:25;;;;;;;;;;;;;;;38.10;19.00;92878.06;5088730;28;19995;-60
2021/08/05 12:04:52;;;;;;;;;;;;;;;38.16;19.83;92871.47;5097769;28;19955;-59
2021/08/05 12:07:21;;;;;;;;;;;;;;;38.12;20.24;92883.09;5088443;28;19991;-60
2021/08/05 12:10:07;;;;;;;;;;;;;;;37.71;20.24;92866.47;5088742;28;19999;-60
2021/08/05 12:12:43;;;;;;;;;;;;;;;37.57;21.12;92875.38;5070768;28;19916;-60
2021/08/05 12:15:09;;;;;;;;;;;;;;;37.53;21.43;92872.56;5088548;28;19912;-60
2021/08/05 12:17:34;;;;;;;;;;;;;;;37.84;21.66;92849.69;5106460;28;19912;-59
2021/08/05 12:20:00;;;;;;;;;;;;;;;37.93;21.33;92857.47;5092647;28;20405;-59
2021/08/05 12:22:29;;;;;;;;;;;;;;;37.66;21.32;92847.84;5077663;28;20416;-58
2021/08/05 12:24:55;;;;;;;;;;;;;;;37.38;21.20;92850.47;5088619;28;19962;-59
2021/08/05 12:27:21;;;;;;;;;;;;;;;37.46;21.08;92835.94;5083479;28;19920;-59
2021/08/05 12:29:56;;;;;;;;;;;;;;;37.09;21.17;92830.03;5064710;28;19993;-58
2021/08/05 12:32:21;;;;;;;;;;;;;;;36.73;22.16;92833.41;5088625;28;19908;-60
2021/08/05 12:34:46;;;;;;;;;;;;;;;36.56;22.77;92835.78;5088309;28;19912;-60